Seacod — DDPW — position and weather

sailwx.info

Track history (hours):
 
Tides and Currents Weather Stations Pressure Air Temp Water Temp Dewpoint Dewpoint Depression Visibility Wind Speed Wind Dir Waves Ship Positions

Seacod

Last reported at 2017-Apr-24 23:36 UTC. Time now 2017-Apr-28 06:32 UTC.
Position N 63°14' W 053°10'.

Length 188 m; draft 8.2 m.

Type: Ship. MMSI: 218019000.

Date/timePositionNaut miles runAvg speedWind from/ knotsBaromVisibWave heightAir tempDewpointWater temp
2017-Apr-24 23:36N 63°14' W 053°10'113.0
2017-Apr-24 23:30N 63°15' W 053°09'612.6
2017-Apr-24 23:00N 63°21' W 053°03'612.5
2017-Apr-24 22:31N 63°27' W 052°58'611.9
2017-Apr-24 22:00N 63°32' W 052°52'510.9
2017-Apr-24 21:30N 63°37' W 052°47'510.0
2017-Apr-24 21:00N 63°42' W 052°43'5 9.6
2017-Apr-24 20:30N 63°46' W 052°38'4 8.8
2017-Apr-24 20:00N 63°50' W 052°34'4 8.1
2017-Apr-24 19:31N 63°54' W 052°31'4 8.6
2017-Apr-24 19:00N 63°58' W 052°26'4 8.6
2017-Apr-24 18:30N 64°01' W 052°22'5 9.9
2017-Apr-24 18:00N 64°03' W 052°11'612.6
2017-Apr-24 17:30N 64°06' W 051°58'4 7.1
2017-Apr-24 17:00N 64°08' W 051°52'2 3.6
2017-Apr-24 16:30N 64°10' W 051°50'2 4.3
2017-Apr-24 16:00N 64°12' W 051°47'2 3.9
2017-Apr-24 15:30N 64°13' W 051°43'2 4.9
2017-Apr-24 15:00N 64°11' W 051°46'2 4.6
2017-Apr-24 14:30N 64°09' W 051°50'1 1.4
2017-Apr-24 13:30N 64°08' W 051°52'3 6.2
2017-Apr-24 13:00N 64°11' W 051°48'3 5.4
2017-Apr-24 12:31N 64°13' W 051°44'2 3.3
2017-Apr-24 12:00N 64°11' W 051°46'2 3.9
2017-Apr-24 11:30N 64°10' W 051°49'2 3.6
2017-Apr-24 11:01N 64°09' W 051°51'2 3.4
2017-Apr-24 10:30N 64°07' W 051°54'2 4.0
2017-Apr-24 10:00N 64°09' W 051°51'3 6.0
2017-Apr-24 09:30N 64°11' W 051°48'2 4.9
2017-Apr-24 09:00N 64°13' W 051°44'2 3.3
2017-Apr-24 08:30N 64°12' W 051°46'2 4.3
2017-Apr-24 08:01N 64°10' W 051°49'2 4.8
2017-Apr-24 07:30N 64°08' W 051°52'0 0.4
2017-Apr-24 07:00N 64°08' W 051°52'2 4.8
2017-Apr-24 06:30N 64°10' W 051°49'3 5.3
2017-Apr-24 06:00N 64°12' W 051°46'1 1.3
2017-Apr-24 05:31N 64°12' W 051°45'2 4.5
2017-Apr-24 05:00N 64°10' W 051°48'0 0.5
2017-Apr-24 04:31N 64°10' W 051°48'3 5.5
2017-Apr-24 04:00N 64°12' W 051°45'1 1.2
2017-Apr-24 03:30N 64°12' W 051°46'2 4.3
2017-Apr-24 03:00N 64°10' W 051°49'2 4.3
2017-Apr-24 02:31N 64°09' W 051°51'1 1.3
2017-Apr-24 02:00N 64°08' W 051°52'3 6.4
2017-Apr-24 01:31N 64°11' W 051°48'3 5.8
2017-Apr-24 01:00N 64°13' W 051°43'2 4.6
2017-Apr-24 00:30N 64°11' W 051°46'1 2.9
2017-Apr-24 00:00N 64°10' W 051°46'3 5.1
2017-Apr-23 23:30N 64°08' W 051°51'611.6
2017-Apr-23 23:00N 64°05' W 052°02'612.9
2017-Apr-23 22:30N 64°02' W 052°15'611.9
2017-Apr-23 22:00N 63°56' W 052°14'714.3
2017-Apr-23 21:30N 63°49' W 052°06'714.1
2017-Apr-23 21:01N 63°43' W 051°58'612.9
2017-Apr-23 20:30N 63°41' W 051°45'5 9.9
2017-Apr-23 20:01N 63°41' W 051°33'0 0.0
2017-Apr-22 09:26N 63°41' W 051°33'2 4.8
2017-Apr-22 09:00N 63°41' W 051°37'4 7.6
2017-Apr-22 08:30N 63°41' W 051°46'714.5
2017-Apr-22 08:00N 63°41' W 052°02'2 4.7
2017-Apr-22 07:30N 63°41' W 052°08'2 4.7
2017-Apr-22 07:01N 63°41' W 052°02'1 2.8
2017-Apr-22 06:30N 63°41' W 051°59'2 4.7
2017-Apr-22 06:00N 63°41' W 052°04'2 4.8
2017-Apr-22 05:30N 63°41' W 052°10'2 4.7
2017-Apr-22 05:00N 63°41' W 052°15'2 4.8
2017-Apr-22 04:30N 63°41' W 052°20'2 4.8
2017-Apr-22 04:00N 63°41' W 052°26'2 4.8
2017-Apr-22 03:31N 63°41' W 052°31'1 2.9
2017-Apr-22 03:00N 63°41' W 052°28'2 4.5
2017-Apr-22 02:30N 63°41' W 052°23'2 4.4
2017-Apr-22 02:01N 63°41' W 052°18'2 4.6
2017-Apr-22 01:31N 63°41' W 052°13'2 4.9
2017-Apr-22 01:00N 63°41' W 052°07'3 5.1
2017-Apr-22 00:30N 63°41' W 052°02'3 5.2
2017-Apr-22 00:01N 63°41' W 051°56'3 5.1
2017-Apr-21 23:30N 63°41' W 051°50'3 5.0
2017-Apr-21 23:00N 63°41' W 051°44'3 5.1
2017-Apr-21 22:29N 63°41' W 051°38'3 0.8
2017-Apr-21 19:22N 63°41' W 051°33'2 5.1
2017-Apr-21 18:58N 63°41' W 051°37'4 9.4
2017-Apr-21 18:30N 63°41' W 051°47'713.1
2017-Apr-21 18:01N 63°44' W 051°59'714.8
2017-Apr-21 17:30N 63°51' W 052°07'714.5
2017-Apr-21 17:01N 63°57' W 052°16'611.0
2017-Apr-21 16:30N 64°03' W 052°14'714.6
2017-Apr-21 16:00N 64°06' W 051°59'713.9
2017-Apr-21 15:31N 64°09' W 051°45'1 1.8
2017-Apr-21 15:00N 64°10' W 051°43'0 0.0
2017-Apr-21 14:30N 64°10' W 051°43'0 0.0
2017-Apr-21 13:30N 64°10' W 051°43'0 0.0
2017-Apr-21 13:00N 64°10' W 051°43'0 0.0
2017-Apr-21 12:30N 64°10' W 051°43'0 0.0
2017-Apr-21 12:00N 64°10' W 051°43'0 0.0
2017-Apr-21 11:30N 64°10' W 051°43'0 0.0
2017-Apr-21 11:00N 64°10' W 051°43'0 0.0
2017-Apr-21 10:30N 64°10' W 051°43'0 0.0
2017-Apr-21 10:00N 64°10' W 051°43'0 0.0
2017-Apr-21 09:30N 64°10' W 051°43'0 0.0
2017-Apr-21 09:00N 64°10' W 051°43'0 0.0
2017-Apr-21 08:30N 64°10' W 051°43'0 0.0
2017-Apr-21 07:51N 64°10' W 051°43'0 0.0
2017-Apr-21 07:30N 64°10' W 051°43'0 0.0
2017-Apr-21 07:00N 64°10' W 051°43'0 0.0
2017-Apr-21 06:30N 64°10' W 051°43'0 0.0
2017-Apr-21 06:00N 64°10' W 051°43'0 0.0
2017-Apr-21 05:30N 64°10' W 051°43'0 0.0
2017-Apr-21 05:00N 64°10' W 051°43'0 0.0
2017-Apr-21 04:30N 64°10' W 051°43'0 0.0
2017-Apr-21 04:00N 64°10' W 051°43'0 0.0
2017-Apr-21 03:30N 64°10' W 051°43'0 0.0
2017-Apr-21 03:00N 64°10' W 051°43'0 0.0
2017-Apr-21 02:30N 64°10' W 051°43'0 0.0
2017-Apr-21 02:00N 64°10' W 051°43'0 0.0
2017-Apr-21 01:30N 64°10' W 051°43'0 0.0
2017-Apr-21 01:00N 64°10' W 051°43'0 0.0
2017-Apr-21 00:30N 64°10' W 051°43'0 0.0
2017-Apr-21 00:00N 64°10' W 051°43'0 0.0
2017-Apr-20 23:30N 64°10' W 051°43'0 0.0
2017-Apr-20 23:00N 64°10' W 051°43'0 0.0
2017-Apr-20 22:30N 64°10' W 051°43'0 0.0
2017-Apr-20 22:00N 64°10' W 051°43'0 0.0
2017-Apr-20 21:30N 64°10' W 051°43'0 0.0
2017-Apr-20 21:00N 64°10' W 051°43'0 0.0
2017-Apr-20 20:30N 64°10' W 051°43'0 0.0
2017-Apr-20 20:00N 64°10' W 051°43'0 0.0
2017-Apr-20 19:30N 64°10' W 051°43'0 0.0
2017-Apr-20 19:00N 64°10' W 051°43'0 0.0
2017-Apr-20 18:30N 64°10' W 051°43'0 0.0
2017-Apr-20 18:00N 64°10' W 051°43'0 0.0
2017-Apr-20 17:30N 64°10' W 051°43'0 0.0
2017-Apr-20 17:00N 64°10' W 051°43'0 0.0
2017-Apr-20 16:30N 64°10' W 051°43'0 0.0
2017-Apr-20 16:00N 64°10' W 051°43'0 0.0
2017-Apr-20 15:30N 64°10' W 051°43'0 0.0
2017-Apr-20 15:00N 64°10' W 051°43'0 0.0
2017-Apr-20 14:30N 64°10' W 051°43'0 0.0
2017-Apr-20 13:30N 64°10' W 051°43'0 0.0
2017-Apr-20 12:57N 64°10' W 051°43'0 0.0
2017-Apr-20 12:30N 64°10' W 051°43'0 0.0
2017-Apr-20 12:00N 64°10' W 051°43'0 0.0
2017-Apr-20 11:27N 64°10' W 051°43'0 0.0
2017-Apr-20 11:00N 64°10' W 051°43'0 0.0
2017-Apr-20 10:30N 64°10' W 051°43'0 0.0
2017-Apr-20 10:00N 64°10' W 051°43'0 0.0
2017-Apr-20 09:30N 64°10' W 051°43'0 0.0
2017-Apr-20 09:00N 64°10' W 051°43'0 0.0
2017-Apr-20 08:30N 64°10' W 051°43'0 0.0
2017-Apr-20 08:00N 64°10' W 051°43'0 0.0
2017-Apr-20 07:30N 64°10' W 051°43'0 0.0
2017-Apr-20 07:00N 64°10' W 051°43'0 0.0
2017-Apr-20 06:30N 64°10' W 051°43'0 0.0
2017-Apr-20 06:00N 64°10' W 051°43'0 0.0
2017-Apr-20 05:30N 64°10' W 051°43'0 0.0
2017-Apr-20 05:00N 64°10' W 051°43'0 0.0
2017-Apr-20 04:30N 64°10' W 051°43'0 0.0
2017-Apr-20 03:57N 64°10' W 051°43'0 0.0
2017-Apr-20 03:30N 64°10' W 051°43'0 0.0
2017-Apr-20 03:00N 64°10' W 051°43'0 0.0
2017-Apr-20 02:30N 64°10' W 051°43'0 0.0
2017-Apr-20 02:00N 64°10' W 051°43'0 0.0
2017-Apr-20 01:30N 64°10' W 051°43'0 0.0
2017-Apr-20 01:00N 64°10' W 051°43'0 0.0
2017-Apr-20 00:30N 64°10' W 051°43'0 0.0
2017-Apr-20 00:00N 64°10' W 051°43'0 0.0
2017-Apr-19 23:30N 64°10' W 051°43'0 0.0
2017-Apr-19 23:00N 64°10' W 051°43'0 0.0
2017-Apr-19 22:30N 64°10' W 051°43'0 0.0
2017-Apr-19 22:00N 64°10' W 051°43'0 0.0
2017-Apr-19 21:30N 64°10' W 051°43'0 0.0
2017-Apr-19 21:00N 64°10' W 051°43'0 0.0
2017-Apr-19 20:30N 64°10' W 051°43'0 0.0
2017-Apr-19 20:00N 64°10' W 051°43'0 0.0
2017-Apr-19 19:30N 64°10' W 051°43'0 0.0
2017-Apr-19 19:00N 64°10' W 051°43'0 0.0
2017-Apr-19 18:31N 64°10' W 051°43'0 0.1
2017-Apr-19 18:00N 64°10' W 051°43'0 0.9
2017-Apr-19 17:30N 64°09' W 051°43'1 1.8
2017-Apr-19 17:00N 64°09' W 051°45'1 2.7
2017-Apr-19 16:30N 64°10' W 051°48'1 2.1
2017-Apr-19 16:01N 64°09' W 051°50'3 5.4
2017-Apr-19 15:31N 64°12' W 051°46'1 1.2
2017-Apr-19 15:00N 64°12' W 051°46'3 5.5
2017-Apr-19 14:31N 64°10' W 051°49'0 0.3
2017-Apr-19 13:30N 64°10' W 051°49'3 5.9
2017-Apr-19 13:01N 64°12' W 051°45'2 3.4
2017-Apr-19 12:30N 64°11' W 051°47'3 6.3
2017-Apr-19 12:00N 64°08' W 051°51'4 7.3
2017-Apr-19 11:31N 64°06' W 051°58'612.4
2017-Apr-19 11:00N 64°03' W 052°10'510.0
2017-Apr-19 10:30N 64°01' W 052°20'3 6.0
2017-Apr-19 10:00N 63°59' W 052°25'2 4.8
2017-Apr-19 09:30N 63°58' W 052°30'3 5.1
2017-Apr-19 09:00N 63°56' W 052°35'3 6.8
2017-Apr-19 08:30N 63°54' W 052°41'2 3.8
2017-Apr-19 08:00N 63°54' W 052°45'3 5.8
2017-Apr-19 07:30N 63°52' W 052°50'2 3.4
2017-Apr-19 07:01N 63°51' W 052°53'3 6.2
2017-Apr-19 06:31N 63°49' W 052°59'3 6.4
2017-Apr-19 06:00N 63°47' W 053°04'3 6.4
2017-Apr-19 05:30N 63°45' W 053°10'3 6.3
2017-Apr-19 05:01N 63°43' W 053°15'2 4.2
2017-Apr-19 04:30N 63°41' W 053°14'3 5.9
2017-Apr-19 04:00N 63°40' W 053°08'3 6.0
2017-Apr-19 03:30N 63°39' W 053°01'3 5.8
2017-Apr-19 03:00N 63°39' W 052°55'3 5.6
2017-Apr-19 02:30N 63°39' W 052°48'3 5.6
2017-Apr-19 02:01N 63°39' W 052°42'3 5.6
2017-Apr-19 01:30N 63°40' W 052°36'3 5.6
2017-Apr-19 01:00N 63°40' W 052°30'3 5.6
2017-Apr-19 00:31N 63°40' W 052°23'3 5.5
2017-Apr-19 00:01N 63°40' W 052°17'3 5.4
2017-Apr-18 23:30N 63°40' W 052°11'3 5.4
2017-Apr-18 23:01N 63°40' W 052°05'3 5.3
2017-Apr-18 22:30N 63°40' W 051°59'3 5.4
2017-Apr-18 22:00N 63°41' W 051°53'3 5.4
2017-Apr-18 21:30N 63°41' W 051°47'3 5.6
2017-Apr-18 20:56N 63°41' W 051°39'3 0.4
2017-Apr-18 12:52N 63°41' W 051°33'2 4.5
2017-Apr-18 12:31N 63°41' W 051°37'3 6.6
2017-Apr-18 12:01N 63°41' W 051°44'5 9.7
2017-Apr-18 11:30N 63°40' W 051°55'510.0
2017-Apr-18 11:01N 63°36' W 052°02'5 9.7
2017-Apr-18 10:30N 63°32' W 052°08'510.0
2017-Apr-18 10:00N 63°28' W 052°14'510.2
2017-Apr-18 09:30N 63°23' W 052°20'510.0
2017-Apr-18 09:00N 63°19' W 052°27'5 9.9
2017-Apr-18 08:31N 63°15' W 052°33'  
Track history (hours):
 
Tides and Currents Weather Stations Pressure Air Temp Water Temp Dewpoint Dewpoint Depression Visibility Wind Speed Wind Dir Waves Ship Positions

Seacod

Last reported at 2017-Apr-24 23:36 UTC. Time now 2017-Apr-28 06:32 UTC.
Position N 63°14' W 053°10'.

Length 188 m; draft 8.2 m.

Type: Ship. MMSI: 218019000.

Date/timePositionNaut miles runAvg speedWind from/ knotsBaromVisibWave heightAir tempDewpointWater temp
2017-Apr-24 23:36N 63°14' W 053°10'113.0
2017-Apr-24 23:30N 63°15' W 053°09'612.6
2017-Apr-24 23:00N 63°21' W 053°03'612.5
2017-Apr-24 22:31N 63°27' W 052°58'611.9
2017-Apr-24 22:00N 63°32' W 052°52'510.9
2017-Apr-24 21:30N 63°37' W 052°47'510.0
2017-Apr-24 21:00N 63°42' W 052°43'5 9.6
2017-Apr-24 20:30N 63°46' W 052°38'4 8.8
2017-Apr-24 20:00N 63°50' W 052°34'4 8.1
2017-Apr-24 19:31N 63°54' W 052°31'4 8.6
2017-Apr-24 19:00N 63°58' W 052°26'4 8.6
2017-Apr-24 18:30N 64°01' W 052°22'5 9.9
2017-Apr-24 18:00N 64°03' W 052°11'612.6
2017-Apr-24 17:30N 64°06' W 051°58'4 7.1
2017-Apr-24 17:00N 64°08' W 051°52'2 3.6
2017-Apr-24 16:30N 64°10' W 051°50'2 4.3
2017-Apr-24 16:00N 64°12' W 051°47'2 3.9
2017-Apr-24 15:30N 64°13' W 051°43'2 4.9
2017-Apr-24 15:00N 64°11' W 051°46'2 4.6
2017-Apr-24 14:30N 64°09' W 051°50'1 1.4
2017-Apr-24 13:30N 64°08' W 051°52'3 6.2
2017-Apr-24 13:00N 64°11' W 051°48'3 5.4
2017-Apr-24 12:31N 64°13' W 051°44'2 3.3
2017-Apr-24 12:00N 64°11' W 051°46'2 3.9
2017-Apr-24 11:30N 64°10' W 051°49'2 3.6
2017-Apr-24 11:01N 64°09' W 051°51'2 3.4
2017-Apr-24 10:30N 64°07' W 051°54'2 4.0
2017-Apr-24 10:00N 64°09' W 051°51'3 6.0
2017-Apr-24 09:30N 64°11' W 051°48'2 4.9
2017-Apr-24 09:00N 64°13' W 051°44'2 3.3
2017-Apr-24 08:30N 64°12' W 051°46'2 4.3
2017-Apr-24 08:01N 64°10' W 051°49'2 4.8
2017-Apr-24 07:30N 64°08' W 051°52'0 0.4
2017-Apr-24 07:00N 64°08' W 051°52'2 4.8
2017-Apr-24 06:30N 64°10' W 051°49'3 5.3
2017-Apr-24 06:00N 64°12' W 051°46'1 1.3
2017-Apr-24 05:31N 64°12' W 051°45'2 4.5
2017-Apr-24 05:00N 64°10' W 051°48'0 0.5
2017-Apr-24 04:31N 64°10' W 051°48'3 5.5
2017-Apr-24 04:00N 64°12' W 051°45'1 1.2
2017-Apr-24 03:30N 64°12' W 051°46'2 4.3
2017-Apr-24 03:00N 64°10' W 051°49'2 4.3
2017-Apr-24 02:31N 64°09' W 051°51'1 1.3
2017-Apr-24 02:00N 64°08' W 051°52'3 6.4
2017-Apr-24 01:31N 64°11' W 051°48'3 5.8
2017-Apr-24 01:00N 64°13' W 051°43'2 4.6
2017-Apr-24 00:30N 64°11' W 051°46'1 2.9
2017-Apr-24 00:00N 64°10' W 051°46'3 5.1
2017-Apr-23 23:30N 64°08' W 051°51'611.6
2017-Apr-23 23:00N 64°05' W 052°02'612.9
2017-Apr-23 22:30N 64°02' W 052°15'611.9
2017-Apr-23 22:00N 63°56' W 052°14'714.3
2017-Apr-23 21:30N 63°49' W 052°06'714.1
2017-Apr-23 21:01N 63°43' W 051°58'612.9
2017-Apr-23 20:30N 63°41' W 051°45'5 9.9
2017-Apr-23 20:01N 63°41' W 051°33'0 0.0
2017-Apr-22 09:26N 63°41' W 051°33'2 4.8
2017-Apr-22 09:00N 63°41' W 051°37'4 7.6
2017-Apr-22 08:30N 63°41' W 051°46'714.5
2017-Apr-22 08:00N 63°41' W 052°02'2 4.7
2017-Apr-22 07:30N 63°41' W 052°08'2 4.7
2017-Apr-22 07:01N 63°41' W 052°02'1 2.8
2017-Apr-22 06:30N 63°41' W 051°59'2 4.7
2017-Apr-22 06:00N 63°41' W 052°04'2 4.8
2017-Apr-22 05:30N 63°41' W 052°10'2 4.7
2017-Apr-22 05:00N 63°41' W 052°15'2 4.8
2017-Apr-22 04:30N 63°41' W 052°20'2 4.8
2017-Apr-22 04:00N 63°41' W 052°26'2 4.8
2017-Apr-22 03:31N 63°41' W 052°31'1 2.9
2017-Apr-22 03:00N 63°41' W 052°28'2 4.5
2017-Apr-22 02:30N 63°41' W 052°23'2 4.4
2017-Apr-22 02:01N 63°41' W 052°18'2 4.6
2017-Apr-22 01:31N 63°41' W 052°13'2 4.9
2017-Apr-22 01:00N 63°41' W 052°07'3 5.1
2017-Apr-22 00:30N 63°41' W 052°02'3 5.2
2017-Apr-22 00:01N 63°41' W 051°56'3 5.1
2017-Apr-21 23:30N 63°41' W 051°50'3 5.0
2017-Apr-21 23:00N 63°41' W 051°44'3 5.1
2017-Apr-21 22:29N 63°41' W 051°38'3 0.8
2017-Apr-21 19:22N 63°41' W 051°33'2 5.1
2017-Apr-21 18:58N 63°41' W 051°37'4 9.4
2017-Apr-21 18:30N 63°41' W 051°47'713.1
2017-Apr-21 18:01N 63°44' W 051°59'714.8
2017-Apr-21 17:30N 63°51' W 052°07'714.5
2017-Apr-21 17:01N 63°57' W 052°16'611.0
2017-Apr-21 16:30N 64°03' W 052°14'714.6
2017-Apr-21 16:00N 64°06' W 051°59'713.9
2017-Apr-21 15:31N 64°09' W 051°45'1 1.8
2017-Apr-21 15:00N 64°10' W 051°43'0 0.0
2017-Apr-21 14:30N 64°10' W 051°43'0 0.0
2017-Apr-21 13:30N 64°10' W 051°43'0 0.0
2017-Apr-21 13:00N 64°10' W 051°43'0 0.0
2017-Apr-21 12:30N 64°10' W 051°43'0 0.0
2017-Apr-21 12:00N 64°10' W 051°43'0 0.0
2017-Apr-21 11:30N 64°10' W 051°43'0 0.0
2017-Apr-21 11:00N 64°10' W 051°43'0 0.0
2017-Apr-21 10:30N 64°10' W 051°43'0 0.0
2017-Apr-21 10:00N 64°10' W 051°43'0 0.0
2017-Apr-21 09:30N 64°10' W 051°43'0 0.0
2017-Apr-21 09:00N 64°10' W 051°43'0 0.0
2017-Apr-21 08:30N 64°10' W 051°43'0 0.0
2017-Apr-21 07:51N 64°10' W 051°43'0 0.0
2017-Apr-21 07:30N 64°10' W 051°43'0 0.0
2017-Apr-21 07:00N 64°10' W 051°43'0 0.0
2017-Apr-21 06:30N 64°10' W 051°43'0 0.0
2017-Apr-21 06:00N 64°10' W 051°43'0 0.0
2017-Apr-21 05:30N 64°10' W 051°43'0 0.0
2017-Apr-21 05:00N 64°10' W 051°43'0 0.0
2017-Apr-21 04:30N 64°10' W 051°43'0 0.0
2017-Apr-21 04:00N 64°10' W 051°43'0 0.0
2017-Apr-21 03:30N 64°10' W 051°43'0 0.0
2017-Apr-21 03:00N 64°10' W 051°43'0 0.0
2017-Apr-21 02:30N 64°10' W 051°43'0 0.0
2017-Apr-21 02:00N 64°10' W 051°43'0 0.0
2017-Apr-21 01:30N 64°10' W 051°43'0 0.0
2017-Apr-21 01:00N 64°10' W 051°43'0 0.0
2017-Apr-21 00:30N 64°10' W 051°43'0 0.0
2017-Apr-21 00:00N 64°10' W 051°43'0 0.0
2017-Apr-20 23:30N 64°10' W 051°43'0 0.0
2017-Apr-20 23:00N 64°10' W 051°43'0 0.0
2017-Apr-20 22:30N 64°10' W 051°43'0 0.0
2017-Apr-20 22:00N 64°10' W 051°43'0 0.0
2017-Apr-20 21:30N 64°10' W 051°43'0 0.0
2017-Apr-20 21:00N 64°10' W 051°43'0 0.0
2017-Apr-20 20:30N 64°10' W 051°43'0 0.0
2017-Apr-20 20:00N 64°10' W 051°43'0 0.0
2017-Apr-20 19:30N 64°10' W 051°43'0 0.0
2017-Apr-20 19:00N 64°10' W 051°43'0 0.0
2017-Apr-20 18:30N 64°10' W 051°43'0 0.0
2017-Apr-20 18:00N 64°10' W 051°43'0 0.0
2017-Apr-20 17:30N 64°10' W 051°43'0 0.0
2017-Apr-20 17:00N 64°10' W 051°43'0 0.0
2017-Apr-20 16:30N 64°10' W 051°43'0 0.0
2017-Apr-20 16:00N 64°10' W 051°43'0 0.0
2017-Apr-20 15:30N 64°10' W 051°43'0 0.0
2017-Apr-20 15:00N 64°10' W 051°43'0 0.0
2017-Apr-20 14:30N 64°10' W 051°43'0 0.0
2017-Apr-20 13:30N 64°10' W 051°43'0 0.0
2017-Apr-20 12:57N 64°10' W 051°43'0 0.0
2017-Apr-20 12:30N 64°10' W 051°43'0 0.0
2017-Apr-20 12:00N 64°10' W 051°43'0 0.0
2017-Apr-20 11:27N 64°10' W 051°43'0 0.0
2017-Apr-20 11:00N 64°10' W 051°43'0 0.0
2017-Apr-20 10:30N 64°10' W 051°43'0 0.0
2017-Apr-20 10:00N 64°10' W 051°43'0 0.0
2017-Apr-20 09:30N 64°10' W 051°43'0 0.0
2017-Apr-20 09:00N 64°10' W 051°43'0 0.0
2017-Apr-20 08:30N 64°10' W 051°43'0 0.0
2017-Apr-20 08:00N 64°10' W 051°43'0 0.0
2017-Apr-20 07:30N 64°10' W 051°43'0 0.0
2017-Apr-20 07:00N 64°10' W 051°43'0 0.0
2017-Apr-20 06:30N 64°10' W 051°43'0 0.0
2017-Apr-20 06:00N 64°10' W 051°43'0 0.0
2017-Apr-20 05:30N 64°10' W 051°43'0 0.0
2017-Apr-20 05:00N 64°10' W 051°43'0 0.0
2017-Apr-20 04:30N 64°10' W 051°43'0 0.0
2017-Apr-20 03:57N 64°10' W 051°43'0 0.0
2017-Apr-20 03:30N 64°10' W 051°43'0 0.0
2017-Apr-20 03:00N 64°10' W 051°43'0 0.0
2017-Apr-20 02:30N 64°10' W 051°43'0 0.0
2017-Apr-20 02:00N 64°10' W 051°43'0 0.0
2017-Apr-20 01:30N 64°10' W 051°43'0 0.0
2017-Apr-20 01:00N 64°10' W 051°43'0 0.0
2017-Apr-20 00:30N 64°10' W 051°43'0 0.0
2017-Apr-20 00:00N 64°10' W 051°43'0 0.0
2017-Apr-19 23:30N 64°10' W 051°43'0 0.0
2017-Apr-19 23:00N 64°10' W 051°43'0 0.0
2017-Apr-19 22:30N 64°10' W 051°43'0 0.0
2017-Apr-19 22:00N 64°10' W 051°43'0 0.0
2017-Apr-19 21:30N 64°10' W 051°43'0 0.0
2017-Apr-19 21:00N 64°10' W 051°43'0 0.0
2017-Apr-19 20:30N 64°10' W 051°43'0 0.0
2017-Apr-19 20:00N 64°10' W 051°43'0 0.0
2017-Apr-19 19:30N 64°10' W 051°43'0 0.0
2017-Apr-19 19:00N 64°10' W 051°43'0 0.0
2017-Apr-19 18:31N 64°10' W 051°43'0 0.1
2017-Apr-19 18:00N 64°10' W 051°43'0 0.9
2017-Apr-19 17:30N 64°09' W 051°43'1 1.8
2017-Apr-19 17:00N 64°09' W 051°45'1 2.7
2017-Apr-19 16:30N 64°10' W 051°48'1 2.1
2017-Apr-19 16:01N 64°09' W 051°50'3 5.4
2017-Apr-19 15:31N 64°12' W 051°46'1 1.2
2017-Apr-19 15:00N 64°12' W 051°46'3 5.5
2017-Apr-19 14:31N 64°10' W 051°49'0 0.3
2017-Apr-19 13:30N 64°10' W 051°49'3 5.9
2017-Apr-19 13:01N 64°12' W 051°45'2 3.4
2017-Apr-19 12:30N 64°11' W 051°47'3 6.3
2017-Apr-19 12:00N 64°08' W 051°51'4 7.3
2017-Apr-19 11:31N 64°06' W 051°58'612.4
2017-Apr-19 11:00N 64°03' W 052°10'510.0
2017-Apr-19 10:30N 64°01' W 052°20'3 6.0
2017-Apr-19 10:00N 63°59' W 052°25'2 4.8
2017-Apr-19 09:30N 63°58' W 052°30'3 5.1
2017-Apr-19 09:00N 63°56' W 052°35'3 6.8
2017-Apr-19 08:30N 63°54' W 052°41'2 3.8
2017-Apr-19 08:00N 63°54' W 052°45'3 5.8
2017-Apr-19 07:30N 63°52' W 052°50'2 3.4
2017-Apr-19 07:01N 63°51' W 052°53'3 6.2
2017-Apr-19 06:31N 63°49' W 052°59'3 6.4
2017-Apr-19 06:00N 63°47' W 053°04'3 6.4
2017-Apr-19 05:30N 63°45' W 053°10'3 6.3
2017-Apr-19 05:01N 63°43' W 053°15'2 4.2
2017-Apr-19 04:30N 63°41' W 053°14'3 5.9
2017-Apr-19 04:00N 63°40' W 053°08'3 6.0
2017-Apr-19 03:30N 63°39' W 053°01'3 5.8
2017-Apr-19 03:00N 63°39' W 052°55'3 5.6
2017-Apr-19 02:30N 63°39' W 052°48'3 5.6
2017-Apr-19 02:01N 63°39' W 052°42'3 5.6
2017-Apr-19 01:30N 63°40' W 052°36'3 5.6
2017-Apr-19 01:00N 63°40' W 052°30'3 5.6
2017-Apr-19 00:31N 63°40' W 052°23'3 5.5
2017-Apr-19 00:01N 63°40' W 052°17'3 5.4
2017-Apr-18 23:30N 63°40' W 052°11'3 5.4
2017-Apr-18 23:01N 63°40' W 052°05'3 5.3
2017-Apr-18 22:30N 63°40' W 051°59'3 5.4
2017-Apr-18 22:00N 63°41' W 051°53'3 5.4
2017-Apr-18 21:30N 63°41' W 051°47'3 5.6
2017-Apr-18 20:56N 63°41' W 051°39'3 0.4
2017-Apr-18 12:52N 63°41' W 051°33'2 4.5
2017-Apr-18 12:31N 63°41' W 051°37'3 6.6
2017-Apr-18 12:01N 63°41' W 051°44'5 9.7
2017-Apr-18 11:30N 63°40' W 051°55'510.0
2017-Apr-18 11:01N 63°36' W 052°02'5 9.7
2017-Apr-18 10:30N 63°32' W 052°08'510.0
2017-Apr-18 10:00N 63°28' W 052°14'510.2
2017-Apr-18 09:30N 63°23' W 052°20'510.0
2017-Apr-18 09:00N 63°19' W 052°27'5 9.9
2017-Apr-18 08:31N 63°15' W 052°33'  

Dump ship's entire track history